Pt. Reyes RCA field Weather observations

Data are for 10 minute period ending at time listed.
 Day   Time   Solar   Ave.   Ave.  Ave.  Vector    Max.   Stn.   Total 
  of    of     Rad.   Air    Rel.  Wind   Wind     Wind   Baro. Precip.
Year   Day            Temp.  Hum.  Speed  Dir.     Gust   Pres.        
2022   (PST)   W/m2    F      %     mph   deg.      mph    mb.    in.  
-----------------------------------------------------------------------
 267    4:40    0.0    54  100.0     1    176.9     2.3   1010.5  0.00  
 267    4:50    0.0    53   99.8     2    168.5     2.1   1010.8  0.00  
 267    5:00    0.0    50   99.9     1    137.7     1.9   1010.8  0.00  
 267    5:10    0.0    51  100.0     1    202.4     1.5   1010.8  0.00  
 267    5:20    0.0    52  100.0     0      0.0     0.0   1010.8  0.00  
 267    5:30    0.0    53  100.0     0    140.6     1.7   1011.2  0.00  
 267    5:40    0.0    53  100.0     1    129.5     1.5   1011.2  0.00  
 267    5:50    1.0    52  100.0     2    127.8     2.4   1011.5  0.00  
 267    6:00    3.0    52  100.0     1    131.3     1.7   1011.5  0.00  
 267    6:10    8.0    53  100.0     1    127.3     2.1   1011.5  0.00  
 267    6:20   14.0    51  100.0     2    114.0     2.8   1011.5  0.00  
 267    6:30   76.0    51  100.0     2    112.0     2.5   1011.9  0.00  
 267    6:40  112.0    52  100.0     2    115.8     2.7   1011.9  0.00  
 267    6:50  142.0    53  100.0     1    117.7     2.8   1011.9  0.00  
 267    7:00  171.0    55  100.0     1    134.3     2.0   1012.2  0.00  
 267    7:10  198.0    57  100.0     1    146.4     1.4   1012.2  0.00  
 267    7:20  224.0    58  100.0     1    141.0     2.0   1012.5  0.00  
 267    7:30  250.0    60  100.0     1    170.5     2.0   1012.5  0.00  
 267    7:40  274.0    61   99.9     1     99.1     1.6   1012.5  0.00  
 267    7:50  299.0    62   99.4     1    141.8     1.8   1012.9  0.00  
 267    8:00  324.0    63   96.6     2    164.9     3.1   1012.9  0.00  
 267    8:10  349.0    65   89.6     2    133.2     3.5   1012.9  0.00  
 267    8:20  376.0    66   80.9     2    141.6     3.1   1012.9  0.00  
 267    8:30  408.0    67   73.4     2    147.5     3.6   1012.9  0.00  
 267    8:40  438.0    70   68.0     2    167.2     3.6   1013.2  0.00  
 267    8:50  466.0    71   66.2     3    177.0     4.3   1013.2  0.00  
 267    9:00  494.0    71   65.4     5    187.7     7.7   1013.2  0.00  
 267    9:10  520.0    70   67.4     6    192.9     7.8   1013.2  0.00  
 267    9:20  546.0    70   66.3     6    195.3     7.8   1013.5  0.00  
 267    9:30  571.0    71   63.9     5    194.7     6.9   1013.5  0.00  
 267    9:40  595.0    72   61.1     5    195.0     7.7   1013.9  0.00  
 267    9:50  618.0    72   61.3     6    181.2     8.9   1013.9  0.00  
 267   10:00  638.0    73   58.1     5    179.1     7.0   1013.9  0.00  
 267   10:10  658.0    74   54.0     4    198.8     7.2   1013.9  0.00  
 267   10:20  678.0    75   52.5     5    199.8     8.4   1013.9  0.00  
 267   10:30  695.0    75   52.0     6    186.9     8.7   1013.9  0.00  
 267   10:40  711.0    75   51.0     4    214.9     7.0   1013.9  0.00  
 267   10:50  725.0    75   54.5     5    198.0     8.1   1013.9  0.00  
 267   11:00  737.0    74   56.6     7    197.4    11.1   1013.9  0.00  
 267   11:10  749.0    74   58.6     8    191.0    10.9   1013.9  0.00  
 267   11:20  748.0    73   59.6     9    185.1    11.8   1013.9  0.00  
 267   11:30  756.0    73   60.1     9    187.6    12.6   1013.9  0.00  
 267   11:40  776.0    72   60.4    10    179.3    14.7   1013.9  0.00  
 267   11:50  782.0    72   59.9    11    186.8    14.5   1013.9  0.00  
 267   12:00  786.0    73   59.2    11    185.2    14.0   1013.5  0.00  
 267   12:10  788.0    72   59.3    12    185.2    14.6   1013.5  0.00  
 267   12:20  788.0    73   58.3    10    184.8    14.0   1013.5  0.00  
 267   12:30  786.0    73   59.4    10    188.6    14.8   1013.5  0.00  
 267   12:40  782.0    72   60.9    10    197.9    13.2   1013.5  0.00  
 267   12:50  777.0    71   63.4    11    196.4    12.7   1013.5  0.00  
 267   13:00  771.0    71   63.6    10    194.2    13.2   1013.5  0.00  
 267   13:10  763.0    71   63.3    10    193.2    13.6   1013.5  0.00  
 267   13:20  752.0    71   63.3    10    193.6    14.2   1013.5  0.00  
 267   13:30  739.0    71   64.6    11    190.8    14.2   1013.5  0.00  
 267   13:40  724.0    70   66.4    10    192.1    12.9   1013.2  0.00  
 267   13:50  708.0    70   65.0    10    189.5    13.6   1013.2  0.00  
 267   14:00  691.0    71   65.0     9    194.8    12.3   1013.2  0.00  
 267   14:10  674.0    70   66.0    10    198.9    12.2   1013.2  0.00  
 267   14:20  653.0    70   67.1    10    195.3    12.1   1012.9  0.00  
 267   14:30  631.0    70   68.0    10    193.3    12.3   1012.9  0.00  
 267   14:40  608.0    69   69.1     9    195.4    11.7   1012.9  0.00  
 267   14:50  585.0    69   68.4     8    201.5    11.2   1012.9  0.00  
 267   15:00  560.0    69   68.3     7    200.5     9.3   1012.9  0.00  
 267   15:10  533.0    69   68.2     6    207.0     9.1   1012.9  0.00  
 267   15:20  505.0    69   66.8     6    201.2     8.0   1012.9  0.00  
 267   15:30  476.0    70   66.4     6    198.4     7.7   1012.9  0.00  
 267   15:40  447.0    69   68.7     4    244.4     8.8   1012.9  0.00  
 267   15:50  416.0    68   73.0     8    282.0     9.6   1012.5  0.00  
 267   16:00  385.0    67   76.3     7    277.2     9.3   1012.5  0.00  
 267   16:10  354.0    66   77.4     6    285.2     7.9   1012.5  0.00  
 267   16:20  322.0    66   78.3     6    282.5     7.2   1012.5  0.00  
 267   16:30  290.0    66   79.9     6    294.0     7.1   1012.5  0.00  
 267   16:40  257.0    65   80.3     5    292.4     6.6   1012.5  0.00  
 267   16:50  225.0    65   80.7     5    287.6     6.4   1012.5  0.00  
 267   17:00  193.0    65   81.6     5    279.8     6.4   1012.5  0.00  
 267   17:10  162.0    65   82.0     5    279.6     6.1   1012.5  0.00  
 267   17:20  132.0    65   82.2     4    277.4     5.0   1012.5  0.00  
 267   17:30  101.0    64   84.0     4    255.5     5.3   1012.5  0.00  
 267   17:40   71.0    63   83.9     4    215.3     6.1   1012.5  0.00  
 267   17:50   41.0    61   86.6     6    195.6     7.3   1012.5  0.00  
 267   18:00   20.0    58   92.1     5    191.8     6.4   1012.5  0.00  
 267   18:10    6.0    57   94.9     5    191.5     6.0   1012.5  0.00  
 267   18:20    2.0    56   96.8     4    185.8     5.4   1012.5  0.00  
 267   18:30    0.0    55   97.7     5    181.0     5.6   1012.5  0.00  
 267   18:40    0.0    55   98.4     4    178.3     4.8   1012.5  0.00  
 267   18:50    0.0    55   98.7     3    188.2     3.9   1012.9  0.00  
 267   19:00    0.0    54   99.1     3    187.6     3.7   1012.9  0.00  
 267   19:10    0.0    56   99.7     3    182.5     3.9   1012.9  0.00  
 267   19:20    0.0    57   99.6     3    177.9     4.0   1012.9  0.00  
 267   19:30    0.0    57   99.6     2    175.7     3.2   1012.9  0.00  
 267   19:40    0.0    58   99.6     2    190.1     3.6   1013.2  0.00  
 267   19:50    0.0    58   99.7     2    185.1     3.1   1013.2  0.00  
 267   20:00    0.0    58   99.8     2    176.7     3.3   1013.5  0.00  
 267   20:10    0.0    58   99.9     3    177.6     4.2   1013.5  0.00  
 267   20:20    0.0    57  100.0     4    170.8     5.1   1013.5  0.00  
 267   20:30    0.0    57  100.0     3    235.9     5.8   1013.5  0.00  
 267   20:40    0.0    57  100.0     3    284.1     4.3   1013.5  0.00  
 267   20:50    0.0    56  100.0     3    281.0     4.3   1013.5  0.00  
 267   21:00    0.0    56  100.0     2    285.0     4.5   1013.5  0.00  
 267   21:10    0.0    56  100.0     1    261.7     2.9   1013.9  0.00  
 267   21:20    0.0    56  100.0     3    230.4     5.3   1013.9  0.00  
 267   21:30    0.0    56  100.0     3    186.5     4.7   1013.9  0.00  
 267   21:40    0.0    56  100.0     4    165.5     5.2   1013.9  0.00  
 267   21:50    0.0    56  100.0     3    209.2     5.3   1013.9  0.00  
 267   22:00    0.0    56  100.0     5    175.0     6.4   1013.9  0.00  
 267   22:10    0.0    56  100.0     4    187.7     6.6   1013.9  0.00  
 267   22:20    0.0    56  100.0     5    208.5     6.4   1013.9  0.00  
 267   22:30    0.0    56  100.0     5    208.4     7.5   1013.9  0.00  
 267   22:40    0.0    56  100.0     5    212.1     7.1   1013.9  0.00  
 267   22:50    0.0    56  100.0     5    211.6     7.5   1013.9  0.00  
 267   23:00    0.0    56  100.0     5    217.5     6.9   1013.9  0.00  
 267   23:10    0.0    56  100.0     6    197.2     7.8   1013.9  0.00  
 267   23:20    0.0    56  100.0     6    197.6     7.8   1013.9  0.00  
 267   23:30    0.0    56  100.0     5    197.6     7.0   1013.9  0.00  
 267   23:40    0.0    56  100.0     6    203.2     8.3   1013.5  0.00  
 267   23:50    0.0    56  100.0     6    194.0     8.7   1013.5  0.00  
 268    0:00    0.0    56  100.0     6    205.9     9.1   1013.5  0.00  
 268    0:10    0.0    56  100.0     7    202.7     8.6   1013.5  0.00  
 268    0:20    0.0    56  100.0     7    196.5     9.9   1013.5  0.00  
 268    0:30    0.0    57  100.0     6    216.2     7.6   1013.5  0.00  
 268    0:40    0.0    57  100.0     6    215.0     8.8   1013.5  0.01  
 268    0:50    0.0    57  100.0     6    209.8     9.6   1013.5  0.00  
 268    1:00    0.0    57  100.0     6    218.2     8.2   1013.5  0.00  
 268    1:10    0.0    57  100.0     5    224.7     6.3   1013.5  0.00  
 268    1:20    0.0    57  100.0     5    218.7     6.7   1013.5  0.00  
 268    1:30    0.0    57  100.0     6    213.0     8.1   1013.5  0.00  
 268    1:40    0.0    57  100.0     7    207.7     9.6   1013.5  0.00  
 268    1:50    0.0    57  100.0     8    207.1     9.9   1013.5  0.00  
 268    2:00    0.0    57  100.0     8    197.7    10.4   1013.5  0.00  
 268    2:10    0.0    56  100.0     8    199.2    10.7   1013.5  0.00  
 268    2:20    0.0    56  100.0     8    198.2    11.1   1013.5  0.00  
 268    2:30    0.0    56  100.0     8    202.1    10.6   1013.5  0.00  
 268    2:40    0.0    56  100.0     6    200.8     8.1   1013.5  0.00  
 268    2:50    0.0    56  100.0     7    190.7     9.0   1013.5  0.00  
 268    3:00    0.0    56  100.0     7    199.0     9.3   1013.2  0.00  
 268    3:10    0.0    56  100.0     7    200.4     8.8   1013.2  0.00  
 268    3:20    0.0    55  100.0     7    197.8    10.0   1013.2  0.00  
 268    3:30    0.0    55  100.0     8    199.9    11.1   1013.2  0.00  
 268    3:40    0.0    55  100.0     6    202.3     9.1   1013.2  0.00  
 268    3:50    0.0    55  100.0     6    215.5     7.9   1013.2  0.00  
 268    4:00    0.0    55  100.0     6    194.0     7.7   1013.2  0.00  
 268    4:10    0.0    55  100.0     5    204.3     7.6   1013.2  0.00  
 268    4:20    0.0    55  100.0     5    194.1     6.5   1013.2  0.00  
 268    4:30    0.0    55  100.0     5    199.7     6.8   1013.2  0.00  

Return to Pt. Reyes graphs page.


Western Regional Climate Center,wrcc@dri.edu